sensor_id;sensor_type;location;lat;lon;timestamp;temperature;humidity
16744;DHT22;71724;-33.900;151.182;2024-02-28T00:01:32;26.10;77.70
16744;DHT22;71724;-33.900;151.182;2024-02-28T00:04:00;26.10;77.60
16744;DHT22;71724;-33.900;151.182;2024-02-28T00:06:27;26.10;77.40
16744;DHT22;71724;-33.900;151.182;2024-02-28T00:08:54;26.00;77.60
16744;DHT22;71724;-33.900;151.182;2024-02-28T00:11:22;26.00;77.70
16744;DHT22;71724;-33.900;151.182;2024-02-28T00:13:49;26.00;77.60
16744;DHT22;71724;-33.900;151.182;2024-02-28T00:16:16;26.00;78.00
16744;DHT22;71724;-33.900;151.182;2024-02-28T00:18:44;26.00;77.40
16744;DHT22;71724;-33.900;151.182;2024-02-28T00:21:11;26.00;77.40
16744;DHT22;71724;-33.900;151.182;2024-02-28T00:23:39;26.00;77.50
16744;DHT22;71724;-33.900;151.182;2024-02-28T00:26:06;26.00;77.50
16744;DHT22;71724;-33.900;151.182;2024-02-28T00:28:33;26.00;77.60
16744;DHT22;71724;-33.900;151.182;2024-02-28T00:31:01;26.00;77.70
16744;DHT22;71724;-33.900;151.182;2024-02-28T00:33:29;26.10;77.70
16744;DHT22;71724;-33.900;151.182;2024-02-28T00:35:56;26.10;77.90
16744;DHT22;71724;-33.900;151.182;2024-02-28T00:38:23;26.20;77.70
16744;DHT22;71724;-33.900;151.182;2024-02-28T00:40:51;26.30;77.80
16744;DHT22;71724;-33.900;151.182;2024-02-28T00:43:18;26.30;77.50
16744;DHT22;71724;-33.900;151.182;2024-02-28T00:45:46;26.40;77.40
16744;DHT22;71724;-33.900;151.182;2024-02-28T00:48:13;26.50;77.30
16744;DHT22;71724;-33.900;151.182;2024-02-28T00:50:41;26.50;77.10
16744;DHT22;71724;-33.900;151.182;2024-02-28T00:53:08;26.50;77.00
16744;DHT22;71724;-33.900;151.182;2024-02-28T00:55:35;26.50;77.00
16744;DHT22;71724;-33.900;151.182;2024-02-28T00:58:03;26.60;77.00
16744;DHT22;71724;-33.900;151.182;2024-02-28T01:00:30;26.60;76.80
16744;DHT22;71724;-33.900;151.182;2024-02-28T01:02:58;26.60;76.70
16744;DHT22;71724;-33.900;151.182;2024-02-28T01:05:25;26.60;76.70
16744;DHT22;71724;-33.900;151.182;2024-02-28T01:07:55;26.60;76.60
16744;DHT22;71724;-33.900;151.182;2024-02-28T01:10:23;26.60;77.00
16744;DHT22;71724;-33.900;151.182;2024-02-28T01:12:50;26.60;76.30
16744;DHT22;71724;-33.900;151.182;2024-02-28T01:15:18;26.60;76.50
16744;DHT22;71724;-33.900;151.182;2024-02-28T01:17:45;26.60;76.50
16744;DHT22;71724;-33.900;151.182;2024-02-28T01:20:12;26.70;76.40
16744;DHT22;71724;-33.900;151.182;2024-02-28T01:22:41;26.70;76.40
16744;DHT22;71724;-33.900;151.182;2024-02-28T01:25:08;26.70;76.60
16744;DHT22;71724;-33.900;151.182;2024-02-28T01:27:36;26.80;76.60
16744;DHT22;71724;-33.900;151.182;2024-02-28T01:30:03;26.80;76.50
16744;DHT22;71724;-33.900;151.182;2024-02-28T01:32:31;27.00;76.30
16744;DHT22;71724;-33.900;151.182;2024-02-28T01:34:58;27.00;76.00
16744;DHT22;71724;-33.900;151.182;2024-02-28T01:37:25;27.10;75.80
16744;DHT22;71724;-33.900;151.182;2024-02-28T01:39:53;27.10;75.90
16744;DHT22;71724;-33.900;151.182;2024-02-28T01:42:21;27.10;75.70
16744;DHT22;71724;-33.900;151.182;2024-02-28T01:44:49;27.10;75.60
16744;DHT22;71724;-33.900;151.182;2024-02-28T01:47:17;27.10;75.50
16744;DHT22;71724;-33.900;151.182;2024-02-28T01:49:45;27.10;75.80
16744;DHT22;71724;-33.900;151.182;2024-02-28T01:52:13;27.20;75.80
16744;DHT22;71724;-33.900;151.182;2024-02-28T01:54:41;27.20;75.60
16744;DHT22;71724;-33.900;151.182;2024-02-28T01:57:08;27.20;75.50
16744;DHT22;71724;-33.900;151.182;2024-02-28T01:59:37;27.30;75.30
16744;DHT22;71724;-33.900;151.182;2024-02-28T02:02:06;27.30;75.30
16744;DHT22;71724;-33.900;151.182;2024-02-28T02:04:35;27.40;75.00
16744;DHT22;71724;-33.900;151.182;2024-02-28T02:07:02;27.50;74.80
16744;DHT22;71724;-33.900;151.182;2024-02-28T02:09:30;27.50;74.40
16744;DHT22;71724;-33.900;151.182;2024-02-28T02:11:58;27.70;73.70
16744;DHT22;71724;-33.900;151.182;2024-02-28T02:14:25;27.70;73.60
16744;DHT22;71724;-33.900;151.182;2024-02-28T02:16:53;27.70;73.40
16744;DHT22;71724;-33.900;151.182;2024-02-28T02:19:20;27.80;73.40
16744;DHT22;71724;-33.900;151.182;2024-02-28T02:21:55;27.80;73.40
16744;DHT22;71724;-33.900;151.182;2024-02-28T02:24:24;27.70;73.60
16744;DHT22;71724;-33.900;151.182;2024-02-28T02:26:57;27.80;72.90
16744;DHT22;71724;-33.900;151.182;2024-02-28T02:29:25;27.90;72.80
16744;DHT22;71724;-33.900;151.182;2024-02-28T02:31:54;27.80;72.80
16744;DHT22;71724;-33.900;151.182;2024-02-28T02:34:24;27.80;72.90
16744;DHT22;71724;-33.900;151.182;2024-02-28T02:36:52;27.80;73.10
16744;DHT22;71724;-33.900;151.182;2024-02-28T02:39:20;27.70;73.10
16744;DHT22;71724;-33.900;151.182;2024-02-28T02:41:48;27.70;73.20
16744;DHT22;71724;-33.900;151.182;2024-02-28T02:44:15;27.70;73.30
16744;DHT22;71724;-33.900;151.182;2024-02-28T02:46:43;27.60;73.40
16744;DHT22;71724;-33.900;151.182;2024-02-28T02:49:11;27.50;73.70
16744;DHT22;71724;-33.900;151.182;2024-02-28T02:51:38;27.50;74.00
16744;DHT22;71724;-33.900;151.182;2024-02-28T02:54:07;27.50;74.00
16744;DHT22;71724;-33.900;151.182;2024-02-28T02:56:34;27.40;74.00
16744;DHT22;71724;-33.900;151.182;2024-02-28T02:59:01;27.40;74.10
16744;DHT22;71724;-33.900;151.182;2024-02-28T03:01:29;27.40;74.20
16744;DHT22;71724;-33.900;151.182;2024-02-28T03:03:56;27.40;74.20
16744;DHT22;71724;-33.900;151.182;2024-02-28T03:06:24;27.40;74.40
16744;DHT22;71724;-33.900;151.182;2024-02-28T03:08:51;27.50;74.40
16744;DHT22;71724;-33.900;151.182;2024-02-28T03:11:19;27.60;74.20
16744;DHT22;71724;-33.900;151.182;2024-02-28T03:13:46;27.60;73.90
16744;DHT22;71724;-33.900;151.182;2024-02-28T03:16:13;27.60;73.80
16744;DHT22;71724;-33.900;151.182;2024-02-28T03:18:41;27.70;73.70
16744;DHT22;71724;-33.900;151.182;2024-02-28T03:21:08;27.60;73.40
16744;DHT22;71724;-33.900;151.182;2024-02-28T03:23:35;27.60;73.40
16744;DHT22;71724;-33.900;151.182;2024-02-28T03:26:03;27.60;73.60
16744;DHT22;71724;-33.900;151.182;2024-02-28T03:28:31;27.60;73.90
16744;DHT22;71724;-33.900;151.182;2024-02-28T03:30:58;27.70;73.80
16744;DHT22;71724;-33.900;151.182;2024-02-28T03:33:26;27.80;73.60
16744;DHT22;71724;-33.900;151.182;2024-02-28T03:35:56;27.80;73.50
16744;DHT22;71724;-33.900;151.182;2024-02-28T03:38:23;28.00;73.10
16744;DHT22;71724;-33.900;151.182;2024-02-28T03:40:51;28.00;72.90
16744;DHT22;71724;-33.900;151.182;2024-02-28T03:43:18;28.00;72.90
16744;DHT22;71724;-33.900;151.182;2024-02-28T03:45:47;28.10;72.90
16744;DHT22;71724;-33.900;151.182;2024-02-28T03:48:15;28.10;72.60
16744;DHT22;71724;-33.900;151.182;2024-02-28T03:50:43;28.10;72.40
16744;DHT22;71724;-33.900;151.182;2024-02-28T03:53:10;28.10;72.30
16744;DHT22;71724;-33.900;151.182;2024-02-28T03:55:38;28.20;72.10
16744;DHT22;71724;-33.900;151.182;2024-02-28T03:58:06;28.20;72.20
16744;DHT22;71724;-33.900;151.182;2024-02-28T04:00:35;28.20;72.20
16744;DHT22;71724;-33.900;151.182;2024-02-28T04:03:05;28.20;72.10
16744;DHT22;71724;-33.900;151.182;2024-02-28T04:05:32;28.30;72.30
16744;DHT22;71724;-33.900;151.182;2024-02-28T04:08:00;28.30;72.10
16744;DHT22;71724;-33.900;151.182;2024-02-28T04:10:27;28.30;72.10
16744;DHT22;71724;-33.900;151.182;2024-02-28T04:12:55;28.20;71.90
16744;DHT22;71724;-33.900;151.182;2024-02-28T04:15:23;28.20;72.00
16744;DHT22;71724;-33.900;151.182;2024-02-28T04:17:52;28.30;72.20
16744;DHT22;71724;-33.900;151.182;2024-02-28T04:20:20;28.30;72.00
16744;DHT22;71724;-33.900;151.182;2024-02-28T04:22:47;28.30;71.80
16744;DHT22;71724;-33.900;151.182;2024-02-28T04:25:15;28.40;71.70
16744;DHT22;71724;-33.900;151.182;2024-02-28T04:27:43;28.40;71.50
16744;DHT22;71724;-33.900;151.182;2024-02-28T04:30:10;28.40;71.50
16744;DHT22;71724;-33.900;151.182;2024-02-28T04:32:38;28.40;71.10
16744;DHT22;71724;-33.900;151.182;2024-02-28T04:35:05;28.40;71.10
16744;DHT22;71724;-33.900;151.182;2024-02-28T04:37:33;28.40;71.30
16744;DHT22;71724;-33.900;151.182;2024-02-28T04:40:04;28.40;71.50
16744;DHT22;71724;-33.900;151.182;2024-02-28T04:42:33;28.50;71.60
16744;DHT22;71724;-33.900;151.182;2024-02-28T04:45:03;28.50;71.50
16744;DHT22;71724;-33.900;151.182;2024-02-28T04:47:31;28.50;71.30
16744;DHT22;71724;-33.900;151.182;2024-02-28T04:49:59;28.50;71.10
16744;DHT22;71724;-33.900;151.182;2024-02-28T04:52:27;28.50;71.20
16744;DHT22;71724;-33.900;151.182;2024-02-28T04:54:54;28.40;71.40
16744;DHT22;71724;-33.900;151.182;2024-02-28T04:57:22;28.40;71.50
16744;DHT22;71724;-33.900;151.182;2024-02-28T04:59:49;28.40;71.60
16744;DHT22;71724;-33.900;151.182;2024-02-28T05:02:16;28.40;71.60
16744;DHT22;71724;-33.900;151.182;2024-02-28T05:04:44;28.30;71.70
16744;DHT22;71724;-33.900;151.182;2024-02-28T05:07:11;28.30;71.80
16744;DHT22;71724;-33.900;151.182;2024-02-28T05:09:39;28.30;72.00
16744;DHT22;71724;-33.900;151.182;2024-02-28T05:12:07;28.30;72.00
16744;DHT22;71724;-33.900;151.182;2024-02-28T05:14:34;28.30;71.90
16744;DHT22;71724;-33.900;151.182;2024-02-28T05:17:02;28.30;71.90
16744;DHT22;71724;-33.900;151.182;2024-02-28T05:19:29;28.30;71.80
16744;DHT22;71724;-33.900;151.182;2024-02-28T05:21:57;28.30;71.70
16744;DHT22;71724;-33.900;151.182;2024-02-28T05:24:25;28.30;71.50
16744;DHT22;71724;-33.900;151.182;2024-02-28T05:26:52;28.30;71.40
16744;DHT22;71724;-33.900;151.182;2024-02-28T05:29:19;28.30;71.60
16744;DHT22;71724;-33.900;151.182;2024-02-28T05:31:47;28.20;71.70
16744;DHT22;71724;-33.900;151.182;2024-02-28T05:34:14;28.20;71.90
16744;DHT22;71724;-33.900;151.182;2024-02-28T05:36:43;28.30;72.00
16744;DHT22;71724;-33.900;151.182;2024-02-28T05:39:10;28.30;71.90
16744;DHT22;71724;-33.900;151.182;2024-02-28T05:41:37;28.30;71.80
16744;DHT22;71724;-33.900;151.182;2024-02-28T05:44:05;28.30;71.90
16744;DHT22;71724;-33.900;151.182;2024-02-28T05:46:32;28.30;72.00
16744;DHT22;71724;-33.900;151.182;2024-02-28T05:48:59;28.30;72.10
16744;DHT22;71724;-33.900;151.182;2024-02-28T05:51:27;28.30;71.90
16744;DHT22;71724;-33.900;151.182;2024-02-28T05:53:54;28.30;72.00
16744;DHT22;71724;-33.900;151.182;2024-02-28T05:56:22;28.30;71.90
16744;DHT22;71724;-33.900;151.182;2024-02-28T05:58:49;28.30;72.00
16744;DHT22;71724;-33.900;151.182;2024-02-28T06:01:17;28.40;71.90
16744;DHT22;71724;-33.900;151.182;2024-02-28T06:03:51;28.30;72.00
16744;DHT22;71724;-33.900;151.182;2024-02-28T06:06:19;28.40;71.00
16744;DHT22;71724;-33.900;151.182;2024-02-28T06:08:46;28.40;71.00
16744;DHT22;71724;-33.900;151.182;2024-02-28T06:11:14;28.40;71.40
16744;DHT22;71724;-33.900;151.182;2024-02-28T06:13:42;28.40;71.40
16744;DHT22;71724;-33.900;151.182;2024-02-28T06:16:18;28.40;71.10
16744;DHT22;71724;-33.900;151.182;2024-02-28T06:18:46;28.40;71.30
16744;DHT22;71724;-33.900;151.182;2024-02-28T06:21:14;28.40;71.50
16744;DHT22;71724;-33.900;151.182;2024-02-28T06:23:42;28.30;71.60
16744;DHT22;71724;-33.900;151.182;2024-02-28T06:26:10;28.30;71.80
16744;DHT22;71724;-33.900;151.182;2024-02-28T06:28:46;28.30;71.90
16744;DHT22;71724;-33.900;151.182;2024-02-28T06:31:17;28.20;72.00
16744;DHT22;71724;-33.900;151.182;2024-02-28T06:33:44;28.10;72.10
16744;DHT22;71724;-33.900;151.182;2024-02-28T06:36:12;28.10;72.50
16744;DHT22;71724;-33.900;151.182;2024-02-28T06:38:40;28.20;71.80
16744;DHT22;71724;-33.900;151.182;2024-02-28T06:41:10;28.10;71.80
16744;DHT22;71724;-33.900;151.182;2024-02-28T06:43:39;28.10;71.40
16744;DHT22;71724;-33.900;151.182;2024-02-28T06:46:07;28.10;71.90
16744;DHT22;71724;-33.900;151.182;2024-02-28T06:48:34;28.10;71.30
16744;DHT22;71724;-33.900;151.182;2024-02-28T06:51:02;28.00;71.60
16744;DHT22;71724;-33.900;151.182;2024-02-28T06:53:29;28.00;72.00
16744;DHT22;71724;-33.900;151.182;2024-02-28T06:55:57;28.00;72.20
16744;DHT22;71724;-33.900;151.182;2024-02-28T06:58:24;28.00;71.40
16744;DHT22;71724;-33.900;151.182;2024-02-28T07:00:52;27.90;71.70
16744;DHT22;71724;-33.900;151.182;2024-02-28T07:03:19;27.80;71.70
16744;DHT22;71724;-33.900;151.182;2024-02-28T07:05:47;27.70;72.20
16744;DHT22;71724;-33.900;151.182;2024-02-28T07:08:14;27.70;72.40
16744;DHT22;71724;-33.900;151.182;2024-02-28T07:10:41;27.60;72.70
16744;DHT22;71724;-33.900;151.182;2024-02-28T07:13:10;27.60;73.10
16744;DHT22;71724;-33.900;151.182;2024-02-28T07:15:38;27.60;72.80
16744;DHT22;71724;-33.900;151.182;2024-02-28T07:18:06;27.50;73.20
16744;DHT22;71724;-33.900;151.182;2024-02-28T07:20:34;27.50;73.30
16744;DHT22;71724;-33.900;151.182;2024-02-28T07:23:01;27.40;73.30
16744;DHT22;71724;-33.900;151.182;2024-02-28T07:25:29;27.40;73.50
16744;DHT22;71724;-33.900;151.182;2024-02-28T07:27:58;27.30;73.80
16744;DHT22;71724;-33.900;151.182;2024-02-28T07:30:29;27.20;74.00
16744;DHT22;71724;-33.900;151.182;2024-02-28T07:32:57;27.10;74.40
16744;DHT22;71724;-33.900;151.182;2024-02-28T07:35:24;27.10;74.80
16744;DHT22;71724;-33.900;151.182;2024-02-28T07:37:52;27.00;74.80
16744;DHT22;71724;-33.900;151.182;2024-02-28T07:40:19;27.00;75.00
16744;DHT22;71724;-33.900;151.182;2024-02-28T07:42:46;27.00;75.20
16744;DHT22;71724;-33.900;151.182;2024-02-28T07:45:14;27.00;75.30
16744;DHT22;71724;-33.900;151.182;2024-02-28T07:47:42;26.90;75.50
16744;DHT22;71724;-33.900;151.182;2024-02-28T07:50:09;26.90;75.60
16744;DHT22;71724;-33.900;151.182;2024-02-28T07:52:37;26.90;75.60
16744;DHT22;71724;-33.900;151.182;2024-02-28T07:55:06;26.90;75.30
16744;DHT22;71724;-33.900;151.182;2024-02-28T07:57:33;26.90;75.20
16744;DHT22;71724;-33.900;151.182;2024-02-28T08:00:02;26.80;75.70
16744;DHT22;71724;-33.900;151.182;2024-02-28T08:02:30;26.80;75.50
16744;DHT22;71724;-33.900;151.182;2024-02-28T08:04:57;26.80;76.10
16744;DHT22;71724;-33.900;151.182;2024-02-28T08:07:25;26.80;75.40
16744;DHT22;71724;-33.900;151.182;2024-02-28T08:09:52;26.80;75.60
16744;DHT22;71724;-33.900;151.182;2024-02-28T08:12:19;26.80;75.80
16744;DHT22;71724;-33.900;151.182;2024-02-28T08:14:47;26.70;76.30
16744;DHT22;71724;-33.900;151.182;2024-02-28T08:17:14;26.70;76.00
16744;DHT22;71724;-33.900;151.182;2024-02-28T08:19:42;26.70;76.20
16744;DHT22;71724;-33.900;151.182;2024-02-28T08:22:10;26.60;76.40
16744;DHT22;71724;-33.900;151.182;2024-02-28T08:24:38;26.60;76.80
16744;DHT22;71724;-33.900;151.182;2024-02-28T08:27:06;26.60;76.70
16744;DHT22;71724;-33.900;151.182;2024-02-28T08:29:33;26.50;76.90
16744;DHT22;71724;-33.900;151.182;2024-02-28T08:32:02;26.50;76.90
16744;DHT22;71724;-33.900;151.182;2024-02-28T08:34:29;26.50;77.10
16744;DHT22;71724;-33.900;151.182;2024-02-28T08:36:57;26.40;77.20
16744;DHT22;71724;-33.900;151.182;2024-02-28T08:39:24;26.40;77.20
16744;DHT22;71724;-33.900;151.182;2024-02-28T08:41:52;26.40;77.30
16744;DHT22;71724;-33.900;151.182;2024-02-28T08:44:22;26.40;77.40
16744;DHT22;71724;-33.900;151.182;2024-02-28T08:46:49;26.30;77.40
16744;DHT22;71724;-33.900;151.182;2024-02-28T08:49:17;26.30;77.60
16744;DHT22;71724;-33.900;151.182;2024-02-28T08:51:44;26.30;77.60
16744;DHT22;71724;-33.900;151.182;2024-02-28T08:54:12;26.30;77.70
16744;DHT22;71724;-33.900;151.182;2024-02-28T08:56:39;26.30;78.00
16744;DHT22;71724;-33.900;151.182;2024-02-28T08:59:07;26.30;77.90
16744;DHT22;71724;-33.900;151.182;2024-02-28T09:01:34;26.20;77.90
16744;DHT22;71724;-33.900;151.182;2024-02-28T09:04:02;26.20;78.00
16744;DHT22;71724;-33.900;151.182;2024-02-28T09:06:33;26.20;78.00
16744;DHT22;71724;-33.900;151.182;2024-02-28T09:09:01;26.20;78.00
16744;DHT22;71724;-33.900;151.182;2024-02-28T09:11:30;26.10;78.20
16744;DHT22;71724;-33.900;151.182;2024-02-28T09:13:58;26.10;78.50
16744;DHT22;71724;-33.900;151.182;2024-02-28T09:16:26;26.10;78.20
16744;DHT22;71724;-33.900;151.182;2024-02-28T09:18:53;26.10;78.30
16744;DHT22;71724;-33.900;151.182;2024-02-28T09:21:21;26.10;78.10
16744;DHT22;71724;-33.900;151.182;2024-02-28T09:23:49;26.10;78.40
16744;DHT22;71724;-33.900;151.182;2024-02-28T09:26:17;26.00;78.20
16744;DHT22;71724;-33.900;151.182;2024-02-28T09:28:44;26.00;78.30
16744;DHT22;71724;-33.900;151.182;2024-02-28T09:31:13;26.00;78.50
16744;DHT22;71724;-33.900;151.182;2024-02-28T09:33:42;26.00;78.90
16744;DHT22;71724;-33.900;151.182;2024-02-28T09:36:11;26.00;78.60
16744;DHT22;71724;-33.900;151.182;2024-02-28T09:38:38;25.90;78.70
16744;DHT22;71724;-33.900;151.182;2024-02-28T09:41:08;25.90;78.80
16744;DHT22;71724;-33.900;151.182;2024-02-28T09:43:42;25.90;78.90
16744;DHT22;71724;-33.900;151.182;2024-02-28T09:46:14;25.90;79.00
16744;DHT22;71724;-33.900;151.182;2024-02-28T09:48:42;25.90;79.00
16744;DHT22;71724;-33.900;151.182;2024-02-28T09:51:11;25.80;79.00
16744;DHT22;71724;-33.900;151.182;2024-02-28T09:53:42;25.80;79.20
16744;DHT22;71724;-33.900;151.182;2024-02-28T09:56:09;25.90;79.30
16744;DHT22;71724;-33.900;151.182;2024-02-28T09:58:40;25.80;79.10
16744;DHT22;71724;-33.900;151.182;2024-02-28T10:01:10;25.80;79.30
16744;DHT22;71724;-33.900;151.182;2024-02-28T10:03:40;25.80;79.30
16744;DHT22;71724;-33.900;151.182;2024-02-28T10:06:09;25.80;79.40
16744;DHT22;71724;-33.900;151.182;2024-02-28T10:08:36;25.80;79.60
16744;DHT22;71724;-33.900;151.182;2024-02-28T10:11:04;25.80;79.70
16744;DHT22;71724;-33.900;151.182;2024-02-28T10:13:36;25.80;79.50
16744;DHT22;71724;-33.900;151.182;2024-02-28T10:16:07;25.80;79.40
16744;DHT22;71724;-33.900;151.182;2024-02-28T10:18:35;25.80;79.40
16744;DHT22;71724;-33.900;151.182;2024-02-28T10:21:02;25.80;79.60
16744;DHT22;71724;-33.900;151.182;2024-02-28T10:23:30;25.80;79.70
16744;DHT22;71724;-33.900;151.182;2024-02-28T10:26:00;25.80;79.80
16744;DHT22;71724;-33.900;151.182;2024-02-28T10:28:28;25.80;79.40
16744;DHT22;71724;-33.900;151.182;2024-02-28T10:30:56;25.80;79.50
16744;DHT22;71724;-33.900;151.182;2024-02-28T10:33:26;25.80;79.70
16744;DHT22;71724;-33.900;151.182;2024-02-28T10:36:00;25.80;79.70
16744;DHT22;71724;-33.900;151.182;2024-02-28T10:38:27;25.80;79.70
16744;DHT22;71724;-33.900;151.182;2024-02-28T10:40:56;25.70;79.80
16744;DHT22;71724;-33.900;151.182;2024-02-28T10:43:26;25.70;80.00
16744;DHT22;71724;-33.900;151.182;2024-02-28T10:45:59;25.70;80.30
16744;DHT22;71724;-33.900;151.182;2024-02-28T10:48:27;25.80;79.90
16744;DHT22;71724;-33.900;151.182;2024-02-28T10:50:55;25.80;79.80
16744;DHT22;71724;-33.900;151.182;2024-02-28T10:53:31;25.80;79.70
16744;DHT22;71724;-33.900;151.182;2024-02-28T10:56:03;25.80;79.80
16744;DHT22;71724;-33.900;151.182;2024-02-28T10:58:36;25.80;80.10
16744;DHT22;71724;-33.900;151.182;2024-02-28T11:01:06;25.70;80.00
16744;DHT22;71724;-33.900;151.182;2024-02-28T11:03:39;25.70;80.50
16744;DHT22;71724;-33.900;151.182;2024-02-28T11:06:17;25.80;80.10
16744;DHT22;71724;-33.900;151.182;2024-02-28T11:08:49;25.70;80.10
16744;DHT22;71724;-33.900;151.182;2024-02-28T11:11:19;25.70;80.50
16744;DHT22;71724;-33.900;151.182;2024-02-28T11:13:57;25.70;80.10
16744;DHT22;71724;-33.900;151.182;2024-02-28T11:16:28;25.70;80.30
16744;DHT22;71724;-33.900;151.182;2024-02-28T11:18:58;25.80;80.40
16744;DHT22;71724;-33.900;151.182;2024-02-28T11:21:27;25.70;80.10
16744;DHT22;71724;-33.900;151.182;2024-02-28T11:24:01;25.60;80.30
16744;DHT22;71724;-33.900;151.182;2024-02-28T11:26:30;25.70;80.30
16744;DHT22;71724;-33.900;151.182;2024-02-28T11:28:57;25.60;80.50
16744;DHT22;71724;-33.900;151.182;2024-02-28T11:31:25;25.50;80.50
16744;DHT22;71724;-33.900;151.182;2024-02-28T11:33:52;25.50;80.70
16744;DHT22;71724;-33.900;151.182;2024-02-28T11:36:21;25.50;80.90
16744;DHT22;71724;-33.900;151.182;2024-02-28T11:38:49;25.50;80.90
16744;DHT22;71724;-33.900;151.182;2024-02-28T11:41:26;25.50;81.10
16744;DHT22;71724;-33.900;151.182;2024-02-28T11:43:56;25.50;81.30
16744;DHT22;71724;-33.900;151.182;2024-02-28T11:46:24;25.50;80.90
16744;DHT22;71724;-33.900;151.182;2024-02-28T11:48:52;25.40;81.00
16744;DHT22;71724;-33.900;151.182;2024-02-28T11:51:21;25.50;81.20
16744;DHT22;71724;-33.900;151.182;2024-02-28T11:53:49;25.50;81.30
16744;DHT22;71724;-33.900;151.182;2024-02-28T11:56:17;25.50;80.90
16744;DHT22;71724;-33.900;151.182;2024-02-28T11:58:54;25.50;80.90
16744;DHT22;71724;-33.900;151.182;2024-02-28T12:01:39;25.50;81.00
16744;DHT22;71724;-33.900;151.182;2024-02-28T12:04:07;25.40;81.00
16744;DHT22;71724;-33.900;151.182;2024-02-28T12:06:35;25.40;81.10
16744;DHT22;71724;-33.900;151.182;2024-02-28T12:09:08;25.30;81.40
16744;DHT22;71724;-33.900;151.182;2024-02-28T12:11:36;25.30;81.50
16744;DHT22;71724;-33.900;151.182;2024-02-28T12:14:05;25.30;81.50
16744;DHT22;71724;-33.900;151.182;2024-02-28T12:16:39;25.40;81.50
16744;DHT22;71724;-33.900;151.182;2024-02-28T12:19:10;25.40;81.40
16744;DHT22;71724;-33.900;151.182;2024-02-28T12:21:39;25.40;81.40
16744;DHT22;71724;-33.900;151.182;2024-02-28T12:24:08;25.40;81.50
16744;DHT22;71724;-33.900;151.182;2024-02-28T12:26:39;25.40;81.50
16744;DHT22;71724;-33.900;151.182;2024-02-28T12:29:07;25.40;81.40
16744;DHT22;71724;-33.900;151.182;2024-02-28T12:31:37;25.30;81.60
16744;DHT22;71724;-33.900;151.182;2024-02-28T12:34:04;25.40;81.50
16744;DHT22;71724;-33.900;151.182;2024-02-28T12:36:32;25.40;81.40
16744;DHT22;71724;-33.900;151.182;2024-02-28T12:39:00;25.40;81.50
16744;DHT22;71724;-33.900;151.182;2024-02-28T12:41:28;25.40;81.50
16744;DHT22;71724;-33.900;151.182;2024-02-28T12:43:55;25.40;81.60
16744;DHT22;71724;-33.900;151.182;2024-02-28T12:46:23;25.30;81.60
16744;DHT22;71724;-33.900;151.182;2024-02-28T12:48:50;25.30;81.70
16744;DHT22;71724;-33.900;151.182;2024-02-28T12:51:41;25.30;81.90
16744;DHT22;71724;-33.900;151.182;2024-02-28T12:54:09;25.30;81.90
16744;DHT22;71724;-33.900;151.182;2024-02-28T12:56:37;25.30;81.90
16744;DHT22;71724;-33.900;151.182;2024-02-28T12:59:05;25.30;82.10
16744;DHT22;71724;-33.900;151.182;2024-02-28T13:01:36;25.30;81.90
16744;DHT22;71724;-33.900;151.182;2024-02-28T13:04:03;25.30;81.90
16744;DHT22;71724;-33.900;151.182;2024-02-28T13:06:31;25.30;81.90
16744;DHT22;71724;-33.900;151.182;2024-02-28T13:08:58;25.30;82.00
16744;DHT22;71724;-33.900;151.182;2024-02-28T13:11:26;25.30;82.30
16744;DHT22;71724;-33.900;151.182;2024-02-28T13:13:53;25.30;82.00
16744;DHT22;71724;-33.900;151.182;2024-02-28T13:16:21;25.30;81.90
16744;DHT22;71724;-33.900;151.182;2024-02-28T13:18:50;25.30;81.90
16744;DHT22;71724;-33.900;151.182;2024-02-28T13:21:18;25.30;82.10
16744;DHT22;71724;-33.900;151.182;2024-02-28T13:23:45;25.30;82.20
16744;DHT22;71724;-33.900;151.182;2024-02-28T13:26:13;25.30;82.30
16744;DHT22;71724;-33.900;151.182;2024-02-28T13:28:47;25.20;82.20
16744;DHT22;71724;-33.900;151.182;2024-02-28T13:31:15;25.20;82.30
16744;DHT22;71724;-33.900;151.182;2024-02-28T13:33:43;25.20;82.40
16744;DHT22;71724;-33.900;151.182;2024-02-28T13:36:10;25.20;82.30
16744;DHT22;71724;-33.900;151.182;2024-02-28T13:38:37;25.20;82.20
16744;DHT22;71724;-33.900;151.182;2024-02-28T13:41:05;25.20;82.30
16744;DHT22;71724;-33.900;151.182;2024-02-28T13:43:33;25.20;82.50
16744;DHT22;71724;-33.900;151.182;2024-02-28T13:46:00;25.30;82.00
16744;DHT22;71724;-33.900;151.182;2024-02-28T13:48:30;25.30;82.00
16744;DHT22;71724;-33.900;151.182;2024-02-28T13:51:00;25.30;82.10
16744;DHT22;71724;-33.900;151.182;2024-02-28T13:53:28;25.30;82.00
16744;DHT22;71724;-33.900;151.182;2024-02-28T13:55:56;25.30;82.30
16744;DHT22;71724;-33.900;151.182;2024-02-28T13:58:23;25.30;81.90
16744;DHT22;71724;-33.900;151.182;2024-02-28T14:00:51;25.30;81.70
16744;DHT22;71724;-33.900;151.182;2024-02-28T14:03:19;25.30;82.00
16744;DHT22;71724;-33.900;151.182;2024-02-28T14:05:47;25.30;81.90
16744;DHT22;71724;-33.900;151.182;2024-02-28T14:08:14;25.30;82.10
16744;DHT22;71724;-33.900;151.182;2024-02-28T14:10:43;25.20;82.20
16744;DHT22;71724;-33.900;151.182;2024-02-28T14:13:11;25.20;82.20
16744;DHT22;71724;-33.900;151.182;2024-02-28T14:15:38;25.20;82.30
16744;DHT22;71724;-33.900;151.182;2024-02-28T14:18:06;25.20;82.30
16744;DHT22;71724;-33.900;151.182;2024-02-28T14:20:35;25.20;82.50
16744;DHT22;71724;-33.900;151.182;2024-02-28T14:23:02;25.20;82.60
16744;DHT22;71724;-33.900;151.182;2024-02-28T14:25:30;25.20;82.70
16744;DHT22;71724;-33.900;151.182;2024-02-28T14:27:57;25.20;82.60
16744;DHT22;71724;-33.900;151.182;2024-02-28T14:30:25;25.10;82.70
16744;DHT22;71724;-33.900;151.182;2024-02-28T14:32:52;25.10;82.80
16744;DHT22;71724;-33.900;151.182;2024-02-28T14:35:20;25.20;82.80
16744;DHT22;71724;-33.900;151.182;2024-02-28T14:37:47;25.10;82.80
16744;DHT22;71724;-33.900;151.182;2024-02-28T14:40:15;25.20;82.90
16744;DHT22;71724;-33.900;151.182;2024-02-28T14:42:43;25.10;82.90
16744;DHT22;71724;-33.900;151.182;2024-02-28T14:45:12;25.10;82.90
16744;DHT22;71724;-33.900;151.182;2024-02-28T14:47:44;25.20;82.80
16744;DHT22;71724;-33.900;151.182;2024-02-28T14:50:11;25.20;82.70
16744;DHT22;71724;-33.900;151.182;2024-02-28T14:52:40;25.10;82.70
16744;DHT22;71724;-33.900;151.182;2024-02-28T14:55:09;25.20;82.80